createdAt,value
2022-12-09T00:08:06.685Z,16.20
2022-12-09T00:18:12.025Z,15.77
2022-12-09T00:28:16.318Z,16.40
2022-12-09T00:38:26.066Z,14.90
2022-12-09T00:48:34.612Z,13.33
2022-12-09T00:58:36.957Z,16.67
2022-12-09T01:08:43.727Z,14.40
2022-12-09T01:18:52.775Z,16.87
2022-12-09T01:28:57.577Z,15.20
2022-12-09T01:39:00.329Z,16.50
2022-12-09T01:49:03.326Z,16.23
2022-12-09T01:59:09.019Z,16.03
2022-12-09T02:09:16.185Z,14.03
2022-12-09T02:19:37.419Z,15.77
2022-12-09T02:30:01.284Z,16.07
2022-12-09T02:40:44.236Z,16.30
2022-12-09T02:50:46.872Z,13.87
2022-12-09T03:00:49.290Z,15.37
2022-12-09T03:11:07.686Z,14.73
2022-12-09T03:21:15.139Z,16.20
2022-12-09T03:31:19.960Z,17.50
2022-12-09T03:41:29.073Z,17.87
2022-12-09T03:51:39.788Z,17.20
2022-12-09T04:01:43.719Z,17.27
2022-12-09T04:11:45.935Z,10.10
2022-12-09T04:21:52.871Z,16.87
2022-12-09T04:31:57.515Z,17.17
2022-12-09T04:42:04.628Z,17.40
2022-12-09T04:52:14.855Z,17.93
2022-12-09T05:02:17.843Z,18.80
2022-12-09T05:12:20.056Z,18.10
2022-12-09T05:22:25.009Z,17.37
2022-12-09T05:32:31.711Z,19.40
2022-12-09T05:42:41.082Z,14.07
2022-12-09T05:52:43.876Z,17.80
2022-12-09T06:02:51.759Z,17.33
2022-12-09T06:12:58.368Z,18.63
2022-12-09T06:23:04.967Z,17.70
2022-12-09T06:33:29.056Z,22.58
2022-12-09T06:43:32.899Z,20.27
2022-12-09T06:53:37.887Z,17.80
2022-12-09T07:03:41.147Z,18.83
2022-12-09T07:13:44.307Z,19.50
2022-12-09T07:23:49.963Z,18.67
2022-12-09T07:33:56.619Z,18.33
2022-12-09T07:43:59.296Z,17.40
2022-12-09T07:54:01.776Z,17.63
2022-12-09T08:04:12.249Z,16.80
2022-12-09T08:14:20.423Z,17.57
2022-12-09T08:24:22.966Z,17.93
2022-12-09T08:34:30.878Z,18.37
2022-12-09T08:44:33.655Z,18.50
2022-12-09T08:54:38.830Z,18.50
2022-12-09T09:04:44.797Z,17.37
2022-12-09T09:14:49.818Z,19.63
2022-12-09T09:24:57.586Z,19.03
2022-12-09T09:35:02.466Z,20.13
2022-12-09T09:45:07.519Z,21.83
2022-12-09T09:55:19.398Z,20.47
2022-12-09T10:05:37.459Z,20.73
2022-12-09T10:15:52.957Z,21.47
2022-12-09T10:26:04.067Z,22.40
2022-12-09T10:36:11.076Z,20.93
2022-12-09T10:46:19.895Z,22.20
2022-12-09T10:56:29.197Z,21.20
2022-12-09T11:06:34.235Z,21.83
2022-12-09T11:16:36.987Z,19.77
2022-12-09T11:26:39.343Z,21.07
2022-12-09T11:36:53.281Z,21.10
2022-12-09T11:47:00.326Z,22.93
2022-12-09T11:57:22.627Z,21.80
2022-12-09T12:07:37.766Z,21.50
2022-12-09T12:17:50.999Z,22.87
2022-12-09T12:28:17.411Z,20.57
2022-12-09T12:38:52.111Z,21.87
2022-12-09T12:49:02.140Z,21.37
2022-12-09T12:59:31.356Z,22.30
2022-12-09T13:09:47.809Z,22.87
2022-12-09T13:19:58.214Z,22.17
2022-12-09T13:30:22.611Z,21.70
2022-12-09T13:40:30.936Z,23.63
2022-12-09T13:50:36.931Z,26.10
2022-12-09T14:00:43.912Z,29.57
2022-12-09T14:10:52.347Z,27.67
2022-12-09T14:21:21.584Z,25.20
2022-12-09T14:31:51.386Z,25.17
2022-12-09T14:42:06.294Z,28.27
2022-12-09T14:52:19.835Z,26.90
2022-12-09T15:02:32.833Z,27.57
2022-12-09T15:12:40.658Z,27.93
2022-12-09T15:22:52.897Z,29.97
2022-12-09T15:32:57.664Z,31.67
2022-12-09T15:43:09.167Z,30.03
2022-12-09T15:53:18.340Z,30.17
2022-12-09T16:03:37.410Z,24.23
2022-12-09T16:14:11.878Z,29.33
2022-12-09T16:24:14.626Z,29.60
2022-12-09T16:34:26.743Z,32.87
2022-12-09T16:44:32.783Z,37.23
2022-12-09T16:54:34.943Z,30.70
2022-12-09T17:04:39.834Z,34.60
2022-12-09T17:14:44.413Z,39.57
2022-12-09T17:24:46.586Z,41.50
2022-12-09T17:34:58.166Z,35.67
2022-12-09T17:45:09.632Z,37.50
2022-12-09T17:55:13.691Z,24.03
2022-12-09T18:05:16.972Z,29.83
2022-12-09T18:15:21.620Z,20.17
2022-12-09T18:25:23.874Z,19.43
2022-12-09T18:35:30.629Z,32.37
2022-12-09T18:45:36.089Z,35.37
2022-12-09T18:55:44.495Z,33.73
2022-12-09T19:05:50.235Z,35.50
2022-12-09T19:15:54.811Z,30.67
2022-12-09T19:25:58.971Z,34.93
2022-12-09T19:36:03.742Z,36.40
2022-12-09T19:46:08.006Z,35.23
2022-12-09T19:56:16.863Z,29.57
2022-12-09T20:06:21.537Z,38.17
2022-12-09T20:16:26.363Z,20.53
2022-12-09T20:26:34.688Z,21.43
2022-12-09T20:36:39.480Z,34.43
2022-12-09T20:46:50.185Z,21.10
2022-12-09T20:56:53.309Z,21.20
2022-12-09T21:06:55.510Z,43.57
2022-12-09T21:17:03.218Z,36.07
2022-12-09T21:27:05.660Z,32.97
2022-12-09T21:37:13.013Z,14.73
2022-12-09T21:47:15.255Z,37.90
2022-12-09T21:57:20.340Z,27.47
2022-12-09T22:07:22.506Z,25.63
2022-12-09T22:17:24.573Z,22.17
2022-12-09T22:27:29.316Z,23.47
2022-12-09T22:37:43.564Z,41.60
2022-12-09T22:47:46.523Z,43.13
2022-12-09T22:57:52.999Z,36.43
2022-12-09T23:07:55.127Z,26.20
2022-12-09T23:18:02.215Z,40.93
2022-12-09T23:28:05.674Z,29.77
2022-12-09T23:38:07.875Z,38.63
2022-12-09T23:48:11.192Z,28.93
2022-12-09T23:58:15.578Z,30.13
